Flight Track Log - Related Links

Times and Time Zones

All times are in EDT time to prevent confusion due to time zone crossing. See the JZA7784 flight status page for this flight to view local times or setup timezone preferences in your user account.

Time Position Orientation Groundspeed Altitude Reporting Facility
EDT Latitude Longitude Course Direction KTS MPH feet Rate Location/Type
Sat 12:55:00 AM 43.8789 -78.9054 74° East  Level FlightAware Approximate
Sat 12:56:00 AM 43.9272 -78.7224 69° East  Level FlightAware Approximate
Sat 12:57:00 AM 43.9881 -78.5468 64° Northeast  Level FlightAware Approximate
Sat 12:58:00 AM 44.0449 -78.3683 68° East  Level FlightAware Approximate
Sat 12:59:00 AM 44.0952 -78.1858 71° East  Level FlightAware Approximate
Sat 01:00:00 AM 44.1399 -78.0004 74° East  Level FlightAware Approximate
Sat 01:01:00 AM 44.1898 -77.8177 67° East  Level FlightAware Approximate
Sat 01:02:00 AM 44.2440 -77.6369 67° East  Level FlightAware Approximate
Sat 01:03:00 AM 44.2921 -77.4527 68° East  Level FlightAware Approximate
Sat 01:04:00 AM 44.3442 -77.2704 68° East  Level FlightAware Approximate
Sat 01:05:00 AM 44.3913 -77.0853 71° East  Level FlightAware Approximate
Sat 01:06:00 AM 44.4398 -76.9009 69° East  Level FlightAware Approximate
Sat 01:07:00 AM 44.4910 -76.7176 69° East  Level FlightAware Approximate
Sat 01:08:00 AM 44.5418 -76.5340 69° East  Level FlightAware Approximate
Sat 01:09:00 AM 44.5924 -76.3501 69° East  Level FlightAware Approximate
Sat 01:10:00 AM 44.6431 -76.1661 68° East  Level FlightAware Approximate
Sat 01:11:00 AM 44.6954 -75.9828 68° East  Level FlightAware Approximate
Sat 01:12:00 AM 44.7498 -75.8006 67° East  Level FlightAware Approximate
Sat 01:13:00 AM 44.7965 -75.6140 71° East  Level FlightAware Approximate
Sat 01:14:00 AM 44.8424 -75.4274 72° East  Level FlightAware Approximate
Sat 01:15:00 AM 44.8856 -75.2388 74° East  Level FlightAware Approximate
Sat 01:16:00 AM 44.9372 -75.0551 65° Northeast  Level FlightAware Approximate
Sat 01:17:00 AM 44.9884 -74.8732 55° Northeast  Level FlightAware Approximate
Sat 01:18:00 AM 45.0729 -74.7152 58° Northeast  Level FlightAware Approximate
Sat 01:19:00 AM 45.1269 -74.5653 74° East  Level FlightAware Approximate
Sat 01:20:00 AM 45.1941 -74.4270 51° Northeast  Level FlightAware Approximate
Sat 01:21:00 AM 45.2504 -74.2827 55° Northeast  Level FlightAware Approximate
Sat 01:22:00 AM 45.3198 -74.1437 55° Northeast  Level FlightAware Approximate
Sat 01:23:00 AM 45.3810 -73.9995 40° Northeast  Level FlightAware Approximate
Sat 01:24:00 AM 45.4674 -73.8824 39° Northeast  Level FlightAware Approximate
Sat 01:25:00 AM 45.4681 -73.7414 39° Northeast  Level Estimated
Sat 01:26:00 AM 45.4681 -73.7414 215° Southwest  Level Estimated
Sat 01:27:00 AM 45.4681 -73.7414 199° South  Level Estimated
Sat 01:28:00 AM 45.4667 -73.7333 199° South  Level FlightAware Approximate
Sat 01:29:00 AM 45.4681 -73.7414 199° South  Level Estimated
Sat 01:30:00 AM 45.4667 -73.7333 199° South  Level FlightAware Approximate
Sat 01:31:00 AM 45.4681 -73.7414 199° South  Level Estimated
Sat 01:32:00 AM 45.4667 -73.7333 199° South  Level FlightAware Approximate
Sat 01:32:12 AM 45.6167 -73.6500 199° South 220 253 3,100  Level Montreal Center
Sat 01:33:00 AM 45.4681 -73.7414 199° South  Level Estimated
Sat 01:33:12 AM 45.5833 -73.6000 134° Southeast 180 207 3,000  Level Montreal Center
Sat 01:34:00 AM 45.4667 -73.7333 199° South  Level FlightAware Approximate
Sat 01:34:12 AM 45.5333 -73.6167 193° South 160 184 2,200  Level Montreal Center
Sat 01:35:00 AM 45.4681 -73.7414 199° South  Level Estimated
Sat 01:35:12 AM 45.5167 -73.6667 245° Southwest 140 161 1,400  Level Montreal Center
Sat 01:36:00 AM 45.4667 -73.7333 199° South  Level FlightAware Approximate
Sat 01:36:12 AM 45.4833 -73.7000 215° Southwest 130 150 700  Level Montreal Center
Sat 01:37:00 AM 45.4681 -73.7414 199° South  Level Estimated
Sat 01:37:12 AM 45.4667 -73.7500 245° Southwest 90 104 100  Level Montreal Center
Sat 01:39:23 AM 45.4500 -73.7500 180° South 20 23 100  Level Montreal Center

Login

Don't have an account? Register now (free) for customized features, flight alerts, and more!